首页
METAR-TAF:

METAR-TAF

机场 :

格兰茨帕斯

Sexton Summit, 俄勒冈州, 美国

纬度: 42-36-01N, 经度: 123-21-51W, 海拔: 0米

当前天气观测

该预报发布于1小时和7分钟前的23:56 UTC
静风
温度 21°C
湿度 49%
气压 1020 hPa
能見度: 16.1公里
阴天层高于6000英尺

METAR: KSXT 262356Z AUTO 00000KT 10SM OVC060 21/10 A3011 RMK AO2 SLP159 T02110100 10228 20167 58006 $

时间: 18:03 (01:03 UTC)


TAF: 丢失

超过4000个机场的气象观测和天气预报(METAR&TAF报告)。

可查询的气象台以黄色和红色小点在地图上表示。

将鼠标移到小点上方,可查看气象台名称。

然后点击查看天气观测和预报。

如需切换地图:点击带黑十字的绿色按钮放大地图;点击带横线的绿色按钮缩小地图;或者点击绿色箭头查看邻近地区的地图。


METAR-TAF: